Flight Track Log - Related Links

Times and Time Zones

All times are in EST time to prevent confusion due to time zone crossing. See the SWA2975 flight status page for this flight to view local times or setup timezone preferences in your user account.

Time Position Orientation Groundspeed Altitude Reporting Facility
EST Latitude Longitude Course Direction KTS MPH feet Rate Location/Type
Sat 03:30:28 PM 40.8353 -112.0489 311° West 247 284 7,900  Level Salt Lake Center
Sat 03:31:15 PM 40.8525 -112.1022 293° West 237 273 9,900 2,262 Climbing Salt Lake Center
Sat 03:31:29 PM 40.8650 -112.1353 297° West 277 319 10,200 1,967 Climbing Salt Lake Center
Sat 03:32:16 PM 40.8889 -112.2033 295° West 309 356 11,900 3,389 Climbing Salt Lake Center
Sat 03:33:17 PM 40.9533 -112.2892 315° West 330 380 16,300 4,146 Climbing Salt Lake Center
Sat 03:34:19 PM 41.0250 -112.3694 320° Northwest 338 389 20,400 3,561 Climbing Salt Lake Center
Sat 03:35:20 PM 41.0997 -112.4514 320° Northwest 347 399 23,600 2,927 Climbing Salt Lake Center
Sat 03:36:22 PM 41.1858 -112.5256 327° Northwest 368 423 26,400 2,780 Climbing Salt Lake Center
Sat 03:37:23 PM 41.2883 -112.6322 322° Northwest 388 447 29,300 2,439 Climbing Salt Lake Center
Sat 03:38:25 PM 41.3642 -112.7458 312° West 411 473 31,400 1,317 Climbing Salt Lake Center
Sat 03:39:26 PM 41.4406 -112.8583 312° West 410 472 32,000 829 Climbing Salt Lake Center
Sat 03:40:28 PM 41.5139 -112.9731 311° West 408 470 33,100 1,659 Climbing Salt Lake Center
Sat 03:41:29 PM 41.5850 -113.0850 310° West 400 460 35,400 1,820 Climbing Salt Lake Center
Sat 03:42:30 PM 41.6617 -113.1981 312° West 407 468 36,800 1,463 Climbing Salt Lake Center
Sat 03:43:32 PM 41.7361 -113.3136 311° West 411 473 38,400 1,463 Climbing Salt Lake Center
Sat 03:44:33 PM 41.8100 -113.4286 311° West 408 470 39,800 780 Climbing Salt Lake Center
Sat 03:45:35 PM 41.9003 -113.5689 311° West 414 476 40,000 98 Climbing Salt Lake Center
Sat 03:46:36 PM 41.9744 -113.6839 311° West 410 472 40,000  Level Salt Lake Center
Sat 03:47:37 PM 42.0475 -113.8003 310° West 408 470 40,000  Level Salt Lake Center
Sat 03:48:39 PM 42.1225 -113.9167 311° West 410 472 40,000  Level Salt Lake Center
Sat 03:49:40 PM 42.1975 -114.0325 311° West 412 474 40,000  Level Salt Lake Center
Sat 03:50:42 PM 42.2711 -114.1503 310° West 410 472 40,000  Level Salt Lake Center
Sat 03:51:43 PM 42.3450 -114.2711 310° West 412 474 40,000  Level Salt Lake Center
Sat 03:52:44 PM 42.4181 -114.3908 310° West 409 471 40,000  Level Salt Lake Center
Sat 03:53:46 PM 42.4925 -114.5092 310° West 412 474 40,000  Level Salt Lake Center
Sat 03:54:47 PM 42.5825 -114.6475 311° West 409 471 40,000  Level Salt Lake Center
Sat 03:55:49 PM 42.6522 -114.7575 311° West 416 479 40,000  Level Salt Lake Center
Sat 03:56:50 PM 42.7272 -114.8739 311° West 411 473 40,000  Level Salt Lake Center
Sat 03:57:51 PM 42.8028 -114.9906 311° West 411 473 40,000  Level Salt Lake Center
Sat 03:58:53 PM 42.8772 -115.1086 311° West 409 471 40,000  Level Salt Lake Center
Sat 03:59:54 PM 42.9658 -115.2481 311° West 407 468 40,000  Level Salt Lake Center
Sat 04:00:56 PM 43.0389 -115.3664 310° West 408 470 40,000  Level Salt Lake Center
Sat 04:01:57 PM 43.1122 -115.4831 311° West 405 466 40,000  Level Salt Lake Center
Sat 04:02:58 PM 43.1847 -115.5997 310° West 402 463 40,000  Level Salt Lake Center
Sat 04:04:00 PM 43.2567 -115.7156 310° West 400 460 40,000  Level Salt Lake Center
Sat 04:05:01 PM 43.3278 -115.8311 310° West 398 458 40,000  Level Salt Lake Center
Sat 04:06:02 PM 43.4003 -115.9467 311° West 398 458 40,000  Level Salt Lake Center
Sat 04:07:04 PM 43.4728 -116.0633 311° West 401 461 40,000  Level Salt Lake Center
Sat 04:08:05 PM 43.5444 -116.1811 310° West 401 461 40,000  Level Salt Lake Center
Sat 04:09:07 PM 43.5944 -116.3206 296° West 407 468 40,000  Level Salt Lake Center
Sat 04:10:08 PM 43.6511 -116.4889 295° West 403 464 40,000  Level Salt Lake Center
Sat 04:11:09 PM 43.6964 -116.6311 294° West 403 464 40,000  Level Salt Lake Center
Sat 04:12:11 PM 43.7428 -116.7736 294° West 404 465 40,000  Level Salt Lake Center
Sat 04:13:12 PM 43.7906 -116.9158 295° West 408 470 40,000  Level Salt Lake Center
Sat 04:14:13 PM 43.8364 -117.0567 294° West 402 463 40,000  Level Salt Lake Center
Sat 04:15:15 PM 43.8817 -117.1994 294° West 405 466 40,000  Level Salt Lake Center
Sat 04:16:16 PM 43.9261 -117.3408 294° West 402 463 40,000  Level Salt Lake Center
Sat 04:17:18 PM 43.9711 -117.4817 294° West 400 460 40,000  Level Salt Lake Center
Sat 04:18:19 PM 44.0167 -117.6244 294° West 403 464 40,000  Level Salt Lake Center
Sat 04:19:20 PM 44.0611 -117.7661 294° West 401 461 40,000  Level Salt Lake Center
Sat 04:20:22 PM 44.1144 -117.9369 294° West 401 461 40,000  Level Salt Lake Center
Sat 04:21:23 PM 44.1586 -118.0786 294° West 399 459 40,000  Level Salt Lake Center
Sat 04:22:24 PM 44.2031 -118.2208 294° West 400 460 40,000  Level Salt Lake Center
Sat 04:23:26 PM 44.2469 -118.3656 293° West 404 465 40,000  Level Salt Lake Center
Sat 04:24:09 PM 44.2794 -118.4669 294° West 404 465 40,000  Level Seattle Center
Sat 04:25:10 PM 44.3236 -118.6111 293° West 404 465 40,000  Level Seattle Center
Sat 04:26:11 PM 44.3844 -118.7431 303° West 405 466 40,000  Level Seattle Center
Sat 04:27:12 PM 44.4444 -118.8756 302° West 406 467 40,000  Level Seattle Center
Sat 04:28:12 PM 44.5044 -119.0081 302° West 404 465 40,000  Level Seattle Center
Sat 04:29:13 PM 44.5636 -119.1408 302° West 403 464 40,000  Level Seattle Center
Sat 04:30:14 PM 44.6228 -119.2731 302° West 402 463 40,000  Level Seattle Center
Sat 04:31:15 PM 44.6819 -119.4047 302° West 400 460 40,000  Level Seattle Center
Sat 04:32:15 PM 44.7408 -119.5372 302° West 400 460 40,000  Level Seattle Center
Sat 04:33:16 PM 44.7994 -119.6717 302° West 402 463 40,000  Level Seattle Center
Sat 04:34:17 PM 44.8572 -119.8039 302° West 399 459 40,000  Level Seattle Center
Sat 04:35:18 PM 44.9186 -119.9475 301° West 400 460 40,000  Level Seattle Center
Sat 04:36:18 PM 44.9792 -120.0831 302° West 404 465 40,000 -843 Level Seattle Center
Sat 04:37:19 PM 45.0347 -120.2117 301° West 389 448 38,300 -2,213 Descending Seattle Center
Sat 04:38:20 PM 45.0919 -120.3461 301° West 394 453 35,500 -3,000 Descending Seattle Center
Sat 04:39:21 PM 45.1500 -120.4808 301° West 400 460 32,200 -2,926 Descending Seattle Center
Sat 04:40:21 PM 45.2050 -120.6197 299° West 403 464 29,600 -2,529 Descending Seattle Center
Sat 04:41:22 PM 45.2561 -120.7517 299° West 392 451 27,100 -2,361 Descending Seattle Center
Sat 04:42:23 PM 45.3167 -120.9072 299° West 379 436 24,800 -1,574 Descending Seattle Center
Sat 04:43:24 PM 45.3664 -121.0383 298° West 378 435 23,900 -893 Descending Seattle Center
Sat 04:44:24 PM 45.4147 -121.1678 298° West 375 432 23,000 -1,587 Descending Seattle Center
Sat 04:45:25 PM 45.4486 -121.3022 290° West 370 426 20,700 -2,103 Descending Seattle Center
Sat 04:46:21 PM 45.4739 -121.4308 286° West 344 396 18,900 -1,869 Descending Seattle Center
Sat 04:46:26 PM 45.4739 -121.4356 270° West 353 406 18,800 -1,727 Descending Seattle Center
Sat 04:47:27 PM 45.4997 -121.5622 286° West 329 379 17,000 -1,949 Descending Seattle Center
Sat 04:48:23 PM 45.5219 -121.6794 285° West 323 372 15,000 -2,000 Descending Seattle Center
Sat 04:48:27 PM 45.5261 -121.6961 290° West 326 375 15,000  Level Seattle Center
Sat 04:49:28 PM 45.5336 -121.8192 275° West 311 358 15,000  Level Seattle Center
Sat 04:49:35 PM 45.5339 -121.8289 272° West 306 352 15,000 -393 Level Seattle Center
Sat 04:50:29 PM 45.5381 -121.9381 273° West 302 348 14,600 -436 Descending Seattle Center
Sat 04:50:30 PM 45.5372 -121.9389 215° Southwest 298 343 14,600 -1,672 Level Seattle Center
Sat 04:51:30 PM 45.5583 -122.0494 285° West 288 331 12,900 -1,670 Descending Seattle Center
Sat 04:52:25 PM 45.5789 -122.1500 286° West 285 328 11,400 -1,574 Descending Seattle Center
Sat 04:52:31 PM 45.5808 -122.1583 288° West 288 331 11,300 -1,279 Descending Seattle Center
Sat 04:53:26 PM 45.6003 -122.2556 286° West 280 322 10,100 -1,300 Descending Seattle Center
Sat 04:53:31 PM 45.6025 -122.2633 292° West 278 320 10,000 -1,400 Descending Seattle Center
Sat 04:54:26 PM 45.6208 -122.3553 286° West 260 299 8,700 -1,475 Descending Seattle Center
Sat 04:54:32 PM 45.6239 -122.3694 287° West 261 300 8,500 -1,254 Descending Seattle Center
Sat 04:55:33 PM 45.6439 -122.4647 287° West 253 291 7,300 -1,190 Descending Seattle Center
Sat 04:56:28 PM 45.6722 -122.5442 297° West 238 274 6,200 -1,082 Descending Seattle Center
Sat 04:56:34 PM 45.6736 -122.5489 293° West 240 276 6,200 -700 Level Seattle Center
Sat 04:57:28 PM 45.6969 -122.6239 294° West 223 257 5,500 -800 Descending Seattle Center
Sat 04:57:34 PM 45.6981 -122.6306 283° West 225 259 5,400 -1,075 Descending Seattle Center
Sat 04:58:35 PM 45.7197 -122.7194 289° West 222 255 4,300 -1,180 Descending Seattle Center
Sat 04:59:36 PM 45.7153 -122.7925 265° West 212 244 3,000 -893 Descending Seattle Center
Sat 05:00:36 PM 45.6703 -122.7831 172° South 165 190 2,500 -492 Descending Seattle Center
Sat 05:00:37 PM 45.6708 -122.7817 60° Northeast 171 197 2,500 -545 Level Seattle Center
Sat 05:01:31 PM 45.6436 -122.7475 139° Southeast 134 154 2,000 -500 Descending Seattle Center
Sat 05:01:37 PM 45.6419 -122.7436 122° Southeast 147 169 2,000 -600 Level Seattle Center
Sat 05:02:31 PM 45.6258 -122.7022 119° Southeast 123 142 1,400 -689 Descending Seattle Center
Sat 05:02:38 PM 45.6250 -122.6983 107° East 129 148 1,300 -716 Descending Seattle Center
Sat 05:03:38 PM 45.6075 -122.6542 120° Southeast 125 144 600 -689 Descending Seattle Center
Sat 05:03:39 PM 45.6078 -122.6547 306° West 127 146 600  Level Seattle Center

Login

Don't have an account? Register now (free) for customized features, flight alerts, and more!